Terminal Aerodrome Forecast
Issued by NWS

Home | Current Version | Previous Version | Text Only | Print | Product List | Glossary On
Versions: 1 2 3 4 5 6 7 8 9 10 11 12 13 14 15 16 17 18
000
FTUS43 KPAH 190507 AAA
TAFCGI
TAF AMD
KCGI 190507Z 1905/1924 00000KT P6SM VCTS SCT050 BKN130CB
      TEMPO 1907/1911 5SM BR BKN045
     FM191100 19001KT 5SM BR MIFG FEW008 BKN050
     FM191500 19004KT P6SM SCT045=

USA.gov is the U.S. government's official web portal to all federal, state and local government web resources and services.